Time;durP1;ratioP1;P1;durP2;ratioP2;P2;SDS_P1;SDS_P2;PMS_P1;PMS_P2;Temp;Humidity;BMP_temperature;BMP_pressure;BME280_temperature;BME280_humidity;BME280_pressure;Samples;Min_cycle;Max_cycle;Signal;HPM_P1;HPM_P2
2022/04/17 00:02:03;;;;;;;9.00;6.85;;;;;;;7.46;51.66;102968.41;5047198;28;20029;-66
2022/04/17 00:04:28;;;;;;;10.35;7.30;;;;;;;7.41;51.48;102980.63;5045307;28;20043;-64
2022/04/17 00:06:54;;;;;;;9.18;7.00;;;;;;;7.41;52.05;102978.91;5036533;28;20025;-65
2022/04/17 00:09:19;;;;;;;9.93;7.60;;;;;;;7.44;52.10;102970.19;5046071;28;20492;-66
2022/04/17 00:11:45;;;;;;;9.45;7.10;;;;;;;7.37;52.05;102979.88;5046195;28;20099;-66
2022/04/17 00:14:11;;;;;;;10.32;7.28;;;;;;;7.24;52.11;102970.88;5038888;28;20100;-66
2022/04/17 00:16:37;;;;;;;9.23;7.07;;;;;;;7.31;52.06;102985.25;5042767;28;20419;-66
2022/04/17 00:19:02;;;;;;;9.98;7.10;;;;;;;7.20;52.01;102984.75;5047785;28;20461;-65
2022/04/17 00:21:27;;;;;;;9.40;7.28;;;;;;;7.12;51.75;102979.03;5047299;28;20028;-66
2022/04/17 00:23:53;;;;;;;9.65;7.45;;;;;;;7.16;52.65;102978.00;5047188;28;20108;-65
2022/04/17 00:26:19;;;;;;;9.27;7.25;;;;;;;7.15;52.29;102979.75;5047141;28;20460;-65
2022/04/17 00:28:44;;;;;;;10.25;7.70;;;;;;;7.11;52.79;102979.88;5045560;28;20032;-66
2022/04/17 00:31:10;;;;;;;10.70;7.78;;;;;;;7.11;52.53;102983.34;5047247;28;20028;-65
2022/04/17 00:33:35;;;;;;;10.02;7.43;;;;;;;7.09;52.53;102985.13;5040246;28;20103;-66
2022/04/17 00:36:00;;;;;;;10.02;7.15;;;;;;;7.11;52.85;102977.31;5045749;28;20056;-64
2022/04/17 00:38:26;;;;;;;9.60;7.82;;;;;;;7.11;52.41;102978.19;5047011;28;20108;-65
2022/04/17 00:40:54;;;;;;;10.13;7.75;;;;;;;6.88;53.28;102976.34;5051679;28;20021;-66
2022/04/17 00:43:30;;;;;;;10.48;7.82;;;;;;;6.81;52.75;102961.94;5046734;28;20037;-65
2022/04/17 00:45:59;;;;;;;10.77;8.23;;;;;;;6.86;53.10;102972.94;5027523;28;20061;-65
2022/04/17 00:48:25;;;;;;;11.85;8.13;;;;;;;6.85;52.98;102971.25;5042041;28;20488;-65
2022/04/17 00:50:54;;;;;;;12.57;8.02;;;;;;;6.87;53.11;102968.63;5026837;28;20029;-64
2022/04/17 00:53:21;;;;;;;10.27;8.10;;;;;;;6.76;53.49;102963.81;5039205;28;20120;-65
2022/04/17 00:55:48;;;;;;;11.60;8.25;;;;;;;6.82;53.11;102971.34;5045154;28;20051;-65
2022/04/17 00:58:14;;;;;;;11.43;8.93;;;;;;;6.79;53.24;102963.72;5041668;28;20074;-66
2022/04/17 01:00:43;;;;;;;10.48;8.55;;;;;;;6.80;53.10;102964.56;5040143;28;20037;-66
2022/04/17 01:03:12;;;;;;;;;;;;;;;6.93;53.39;102971.84;5027350;28;20033;-65
2022/04/17 01:05:41;;;;;;;11.30;8.63;;;;;;;6.68;54.07;102963.22;5024935;28;19916;-65
2022/04/17 01:08:09;;;;;;;11.90;8.55;;;;;;;6.56;53.66;102974.75;5025350;28;20039;-65
2022/04/17 01:10:34;;;;;;;12.05;8.48;;;;;;;6.47;54.26;102971.59;5027067;28;20454;-66
2022/04/17 01:13:02;;;;;;;10.65;8.40;;;;;;;6.47;54.29;102980.16;5033752;28;20078;-64
2022/04/17 01:15:28;;;;;;;11.40;8.50;;;;;;;6.47;53.67;102980.16;5038441;28;20120;-65
2022/04/17 01:17:54;;;;;;;10.65;8.88;;;;;;;6.43;54.17;102970.03;5046406;28;20040;-65
2022/04/17 01:20:21;;;;;;;11.55;8.77;;;;;;;6.45;54.34;102976.78;5046261;28;20074;-66
2022/04/17 01:28:21;;;;;;;12.45;9.55;;;;;;;6.31;54.88;102974.63;5046039;28;20562;-66
2022/04/17 01:30:52;;;;;;;10.98;9.15;;;;;;;6.33;54.83;102977.16;5038388;28;20049;-65
2022/04/17 01:33:17;;;;;;;12.63;9.60;;;;;;;6.19;54.71;102953.50;5024874;28;20033;-65
2022/04/17 01:35:42;;;;;;;12.35;9.98;;;;;;;6.28;54.87;102974.72;5026840;28;20052;-66
2022/04/17 01:38:08;;;;;;;13.05;9.65;;;;;;;6.24;54.17;102973.09;5026814;28;20553;-66
2022/04/17 01:40:33;;;;;;;13.95;9.57;;;;;;;6.24;54.38;102973.09;5026891;28;20032;-66
2022/04/17 01:42:58;;;;;;;12.05;9.82;;;;;;;6.21;54.66;102965.47;5031680;28;20033;-65
2022/04/17 01:45:24;;;;;;;11.57;9.35;;;;;;;6.14;54.06;102966.56;5044037;28;20037;-66
2022/04/17 01:47:49;;;;;;;12.07;9.77;;;;;;;6.21;53.29;102968.06;5043727;28;20028;-66
2022/04/17 01:50:14;;;;;;;14.25;9.98;;;;;;;6.14;53.79;102956.25;5037182;28;20488;-65
2022/04/17 01:52:40;;;;;;;11.98;10.15;;;;;;;6.13;53.28;102954.53;5036546;28;20481;-65
2022/04/17 01:55:05;;;;;;;13.57;10.35;;;;;;;6.17;54.08;102953.56;5033928;28;20025;-65
2022/04/17 01:57:31;;;;;;;11.02;9.32;;;;;;;6.17;53.87;102953.56;5042436;28;20029;-65
2022/04/17 01:59:56;;;;;;;13.73;10.80;;;;;;;6.11;53.49;102956.31;5045421;28;20108;-65
2022/04/17 02:02:21;;;;;;;13.32;10.55;;;;;;;6.07;52.83;102954.72;5029471;28;20033;-65
2022/04/17 02:04:47;;;;;;;14.05;11.00;;;;;;;6.12;53.53;102953.69;5033581;28;20489;-65
2022/04/17 02:07:14;;;;;;;14.05;10.60;;;;;;;6.04;53.78;102952.25;5045960;28;20037;-65
2022/04/17 02:09:39;;;;;;;14.18;10.55;;;;;;;5.97;53.45;102948.16;5043575;28;20145;-65
2022/04/17 02:12:04;;;;;;;13.63;11.15;;;;;;;5.91;54.58;102932.81;5029942;28;20381;-65
2022/04/17 02:14:30;;;;;;;13.68;10.95;;;;;;;5.99;53.84;102951.53;5040805;28;20021;-63
2022/04/17 02:16:55;;;;;;;14.15;10.63;;;;;;;5.91;53.77;102953.41;5047063;28;20092;-65
2022/04/17 02:19:21;;;;;;;13.02;10.40;;;;;;;5.90;53.75;102949.16;5049544;28;20033;-65
2022/04/17 02:21:46;;;;;;;14.38;11.68;;;;;;;5.73;54.06;102945.31;5049454;28;20021;-65
2022/04/17 02:24:11;;;;;;;14.75;11.48;;;;;;;5.79;54.33;102937.44;5049414;28;20029;-65
2022/04/17 02:26:37;;;;;;;14.35;11.40;;;;;;;5.78;54.13;102940.88;5049379;28;20091;-65
2022/04/17 02:29:02;;;;;;;14.63;11.63;;;;;;;5.76;54.49;102945.25;5049618;28;20079;-65
2022/04/17 02:31:28;;;;;;;14.75;11.60;;;;;;;5.68;54.90;102947.19;5049069;28;20033;-65
2022/04/17 02:33:53;;;;;;;14.85;11.55;;;;;;;5.71;54.24;102939.38;5049705;28;20032;-65
2022/04/17 02:36:20;;;;;;;14.68;11.57;;;;;;;5.64;54.61;102944.75;5049302;28;20583;-65
2022/04/17 02:38:46;;;;;;;16.52;11.70;;;;;;;5.68;54.04;102942.06;5049355;28;20454;-65
2022/04/17 02:41:11;;;;;;;15.30;11.30;;;;;;;5.68;53.56;102931.75;5049274;28;20075;-64
2022/04/17 02:43:37;;;;;;;15.70;11.65;;;;;;;5.66;53.35;102943.81;5059851;28;20056;-65
2022/04/17 02:46:03;;;;;;;13.85;11.27;;;;;;;5.70;53.39;102929.97;5043542;28;20453;-65
2022/04/17 02:48:28;;;;;;;14.48;11.50;;;;;;;5.71;53.70;102931.66;5040572;28;20037;-65
2022/04/17 02:50:55;;;;;;;16.23;11.63;;;;;;;5.72;53.25;102933.34;5029037;28;20465;-65
2022/04/17 02:53:21;;;;;;;14.88;11.65;;;;;;;5.69;52.53;102930.84;5035964;28;20086;-65
2022/04/17 02:55:47;;;;;;;14.68;11.38;;;;;;;5.69;52.69;102918.00;5046974;28;20056;-65
2022/04/17 02:58:12;;;;;;;15.07;11.65;;;;;;;5.68;53.53;102929.19;5045736;28;20449;-65
2022/04/17 03:05:36;;;;;;;14.95;11.43;;;;;;;5.71;52.29;102925.66;5037649;28;20094;-65
2022/04/17 03:06:10;;;;;;;14.00;11.20;;;;;;;5.61;53.34;102925.06;5027948;28;20500;-65
2022/04/17 03:08:39;;;;;;;14.68;11.63;;;;;;;5.52;53.05;102920.19;5038742;28;20033;-65
2022/04/17 03:11:04;;;;;;;14.82;11.20;;;;;;;5.52;53.57;102930.47;5046512;28;20036;-65
2022/04/17 03:13:30;;;;;;;15.63;11.27;;;;;;;5.51;53.64;102927.06;5043003;28;20055;-65
2022/04/17 03:15:55;;;;;;;14.40;11.63;;;;;;;5.48;53.99;102929.69;5041303;28;20036;-65
2022/04/17 03:18:20;;;;;;;15.15;11.40;;;;;;;5.48;53.42;102918.56;5046694;28;20024;-65
2022/04/17 03:20:46;;;;;;;14.05;11.23;;;;;;;5.41;54.22;102920.47;5032774;28;20033;-65
2022/04/17 03:23:13;;;;;;;16.20;11.80;;;;;;;5.37;54.21;102920.56;5034788;28;20083;-65
2022/04/17 03:25:39;;;;;;;14.25;11.25;;;;;;;5.28;54.54;102917.38;5046639;28;20033;-64
2022/04/17 03:28:05;;;;;;;14.65;11.23;;;;;;;5.29;55.10;102919.06;5047248;28;20055;-65
2022/04/17 03:30:30;;;;;;;15.02;11.18;;;;;;;5.29;54.51;102919.06;5036355;28;20533;-65
2022/04/17 03:32:57;;;;;;;14.00;10.85;;;;;;;5.26;54.84;102916.53;5032279;28;20029;-65
2022/04/17 03:35:23;;;;;;;14.00;10.68;;;;;;;5.23;54.69;102919.22;5048721;28;20031;-65
2022/04/17 03:37:48;;;;;;;14.57;11.40;;;;;;;5.21;55.09;102920.13;5045485;28;20026;-65
2022/04/17 03:40:16;;;;;;;13.23;10.85;;;;;;;5.15;55.12;102921.13;5029675;28;20367;-65
2022/04/17 03:42:42;;;;;;;14.38;11.05;;;;;;;5.17;54.74;102915.94;5033676;28;20374;-65
2022/04/17 03:45:11;;;;;;;14.15;11.50;;;;;;;5.18;54.46;102923.63;5028203;28;20052;-65
2022/04/17 03:47:37;;;;;;;13.90;10.73;;;;;;;5.08;54.69;102927.31;5047652;28;20033;-65
2022/04/17 03:50:03;;;;;;;13.80;11.10;;;;;;;5.03;55.97;102916.28;5048481;28;20120;-65
2022/04/17 03:52:38;;;;;;;12.82;10.73;;;;;;;5.14;56.08;102913.44;5047453;28;20100;-65
2022/04/17 03:55:04;;;;;;;12.93;9.82;;;;;;;5.09;54.92;102905.84;5038000;28;20036;-65
2022/04/17 03:57:29;;;;;;;14.27;10.60;;;;;;;5.13;55.02;102911.75;5035934;28;20025;-65
2022/04/17 03:59:54;;;;;;;12.57;10.20;;;;;;;5.16;54.72;102898.81;5047147;28;20025;-65
2022/04/17 04:02:20;;;;;;;15.07;10.73;;;;;;;5.17;55.28;102909.06;5043177;28;20036;-64
2022/04/17 04:04:46;;;;;;;13.05;10.05;;;;;;;5.19;54.64;102897.00;5040565;28;20040;-65
2022/04/17 04:07:11;;;;;;;14.00;10.93;;;;;;;5.15;54.11;102890.25;5029541;28;20028;-65
2022/04/17 04:09:36;;;;;;;12.75;10.38;;;;;;;5.15;54.56;102884.25;5028679;28;20410;-65
2022/04/17 04:12:02;;;;;;;12.55;10.13;;;;;;;5.20;54.38;102888.41;5030628;28;20047;-65
2022/04/17 04:14:27;;;;;;;12.50;10.02;;;;;;;5.16;54.40;102876.53;5042812;28;20027;-65
2022/04/17 04:16:53;;;;;;;12.75;9.82;;;;;;;5.18;54.30;102882.47;5046843;28;20028;-66
2022/04/17 04:19:18;;;;;;;11.90;10.30;;;;;;;5.19;54.19;102880.72;5048051;28;20537;-65
2022/04/17 04:21:49;;;;;;;12.80;10.10;;;;;;;5.17;54.55;102875.63;5029033;28;20029;-65
2022/04/17 04:24:19;;;;;;;14.05;10.07;;;;;;;5.10;54.28;102873.25;5027668;28;20029;-65
2022/04/17 04:28:32;;;;;;;12.45;9.90;;;;;;;5.01;54.07;102871.75;5027901;28;20025;-65
2022/04/17 04:29:31;;;;;;;12.40;9.50;;;;;;;5.02;54.17;102873.44;5027808;28;20069;-65
2022/04/17 04:31:57;;;;;;;12.38;9.43;;;;;;;5.05;54.00;102873.38;5029755;28;20021;-65
2022/04/17 04:34:22;;;;;;;12.82;9.88;;;;;;;4.97;54.82;102875.28;5047623;28;20029;-66
2022/04/17 04:36:48;;;;;;;12.70;9.57;;;;;;;4.98;54.66;102876.97;5047537;28;20460;-65
2022/04/17 04:39:13;;;;;;;13.48;9.27;;;;;;;4.90;54.74;102873.75;5046988;28;20115;-64
2022/04/17 04:41:38;;;;;;;11.95;9.75;;;;;;;4.86;55.23;102883.25;5046669;28;20033;-65
2022/04/17 04:44:04;;;;;;;12.35;9.80;;;;;;;4.73;56.45;102880.16;5047110;28;20052;-65
2022/04/17 04:46:29;;;;;;;12.18;9.68;;;;;;;4.70;56.00;102885.38;5034248;28;20038;-65
2022/04/17 04:51:38;;;;;;;12.35;9.60;;;;;;;4.66;56.51;102876.06;5047081;28;20079;-64
2022/04/17 04:54:07;;;;;;;12.20;9.43;;;;;;;4.70;56.66;102881.94;5045501;28;20385;-65
2022/04/17 04:56:32;;;;;;;12.23;9.50;;;;;;;4.70;56.50;102885.38;5032922;28;20055;-65
2022/04/17 04:58:58;;;;;;;12.52;9.30;;;;;;;4.66;57.01;102875.22;5030491;28;20473;-65
2022/04/17 05:01:23;;;;;;;11.40;9.15;;;;;;;4.65;56.79;102882.06;5035963;28;20033;-65
2022/04/17 05:03:48;;;;;;;11.55;9.05;;;;;;;4.70;56.79;102882.81;5044388;28;20039;-65
2022/04/17 05:06:14;;;;;;;13.15;9.45;;;;;;;4.62;56.98;102874.44;5044538;28;20119;-65
2022/04/17 05:08:39;;;;;;;12.52;9.52;;;;;;;4.66;58.22;102880.34;5044724;28;20040;-66
2022/04/17 05:11:05;;;;;;;11.23;9.02;;;;;;;4.67;57.67;102872.59;5045011;28;20057;-65
2022/04/17 05:13:30;;;;;;;11.80;9.85;;;;;;;4.63;58.22;102876.13;5046313;28;20105;-67
2022/04/17 05:15:56;;;;;;;13.73;10.13;;;;;;;4.62;57.85;102869.28;5046852;28;20016;-65
2022/04/17 05:18:22;;;;;;;11.95;9.18;;;;;;;4.70;57.34;102882.81;5045395;28;20510;-65
2022/04/17 05:20:47;;;;;;;12.70;9.82;;;;;;;4.70;57.44;102872.53;5045079;28;20064;-65
2022/04/17 05:23:17;;;;;;;12.32;9.85;;;;;;;4.72;56.84;102870.75;5036648;28;20063;-65
2022/04/17 05:25:47;;;;;;;12.10;9.90;;;;;;;4.69;57.21;102875.13;5043579;28;20056;-65
2022/04/17 05:28:13;;;;;;;12.45;10.30;;;;;;;4.69;57.08;102881.09;5031888;28;20466;-65
2022/04/17 05:30:38;;;;;;;15.40;10.88;;;;;;;4.71;57.26;102879.38;5035110;28;20082;-65
2022/04/17 05:33:04;;;;;;;13.25;10.68;;;;;;;4.74;57.53;102871.56;5043298;28;20037;-66
2022/04/17 05:35:29;;;;;;;13.05;10.77;;;;;;;4.68;58.48;102869.13;5045441;28;20517;-65
2022/04/17 05:37:55;;;;;;;15.35;12.32;;;;;;;4.68;58.18;102874.28;5044710;28;20347;-65
2022/04/17 05:40:20;;;;;;;13.98;10.90;;;;;;;4.72;58.47;102875.91;5042110;28;20101;-64
2022/04/17 05:42:46;;;;;;;14.35;10.57;;;;;;;4.74;58.45;102863.84;5040698;28;20021;-65
2022/04/17 05:45:11;;;;;;;12.77;10.68;;;;;;;4.76;58.48;102872.38;5038221;28;20124;-65
2022/04/17 05:47:36;;;;;;;14.38;10.75;;;;;;;4.79;58.21;102867.16;5044464;28;20120;-65
2022/04/17 05:50:03;;;;;;;14.15;10.70;;;;;;;4.78;59.40;102870.59;5030027;28;20029;-65
2022/04/17 05:52:29;;;;;;;14.77;11.20;;;;;;;4.85;59.28;102878.16;5027747;28;20029;-64
2022/04/17 05:54:54;;;;;;;12.60;10.02;;;;;;;4.87;59.06;102878.97;5030322;28;20028;-65
2022/04/17 05:57:19;;;;;;;13.07;10.70;;;;;;;4.96;59.07;102878.75;5043559;28;20503;-65
2022/04/17 05:59:46;;;;;;;12.98;10.85;;;;;;;5.03;59.43;102882.84;5045023;28;20593;-65
2022/04/17 06:02:11;;;;;;;14.02;10.57;;;;;;;5.10;59.13;102881.81;5034663;28;20033;-65
2022/04/17 06:04:37;;;;;;;12.32;10.30;;;;;;;5.16;59.16;102876.53;5048739;28;20029;-65
2022/04/17 06:07:02;;;;;;;13.65;10.30;;;;;;;5.25;58.27;102870.28;5047257;28;20017;-65
2022/04/17 06:09:28;;;;;;;14.15;10.45;;;;;;;5.30;58.18;102879.56;5046051;28;20036;-65
2022/04/17 06:11:53;;;;;;;12.50;10.27;;;;;;;5.29;58.58;102859.88;5049083;28;20039;-66
2022/04/17 06:14:18;;;;;;;13.27;10.10;;;;;;;5.41;58.13;102868.16;5049868;28;20442;-65
2022/04/17 06:16:44;;;;;;;13.65;10.73;;;;;;;5.49;58.22;102879.06;5049473;28;20087;-65
2022/04/17 06:19:09;;;;;;;13.00;10.30;;;;;;;5.57;58.51;102869.41;5041404;28;20033;-65
2022/04/17 06:21:36;;;;;;;12.57;10.00;;;;;;;5.57;58.71;102866.84;5041094;28;20026;-65
2022/04/17 06:24:01;;;;;;;11.98;9.70;;;;;;;5.73;58.79;102872.38;5030131;28;20454;-65
2022/04/17 06:26:27;;;;;;;11.57;10.10;;;;;;;5.76;58.67;102868.00;5041994;28;20023;-65
2022/04/17 06:28:52;;;;;;;12.23;9.18;;;;;;;5.83;57.65;102874.66;5049844;28;20471;-65
2022/04/17 06:31:17;;;;;;;11.00;8.90;;;;;;;5.89;57.35;102859.91;5049383;28;20499;-65
2022/04/17 06:33:43;;;;;;;11.25;8.77;;;;;;;6.04;57.66;102872.38;5049407;28;20044;-65
2022/04/17 06:36:08;;;;;;;12.50;9.00;;;;;;;6.10;57.33;102867.88;5049459;28;20029;-65
2022/04/17 06:38:33;;;;;;;10.85;8.48;;;;;;;6.19;57.27;102861.59;5048989;28;20174;-65
2022/04/17 06:40:59;;;;;;;9.68;8.27;;;;;;;6.27;56.71;102862.22;5055981;28;20020;-65
2022/04/17 06:43:24;;;;;;;11.60;8.32;;;;;;;6.37;57.79;102865.38;5069077;28;20028;-66
2022/04/17 06:45:50;;;;;;;11.57;8.60;;;;;;;6.49;57.50;102864.13;5065482;28;20052;-65
2022/04/17 06:48:17;;;;;;;9.45;7.78;;;;;;;6.60;57.53;102872.38;5048522;28;20123;-65
2022/04/17 06:50:44;;;;;;;9.82;7.15;;;;;;;6.65;54.93;102865.31;5047161;28;20025;-65
2022/04/17 06:53:09;;;;;;;9.18;7.85;;;;;;;6.76;54.98;102868.38;5049021;28;20706;-65
2022/04/17 06:55:35;;;;;;;8.70;7.20;;;;;;;6.83;55.58;102859.56;5036934;28;20106;-65
2022/04/17 06:58:00;;;;;;;9.60;7.60;;;;;;;6.91;55.45;102862.72;5029425;28;20061;-65
2022/04/17 07:00:25;;;;;;;9.15;7.53;;;;;;;6.97;55.30;102860.84;5042706;28;20036;-67
2022/04/17 07:02:51;;;;;;;9.07;7.45;;;;;;;7.02;55.54;102858.94;5043626;28;20037;-66
2022/04/17 07:05:16;;;;;;;9.02;7.30;;;;;;;7.22;55.22;102855.66;5046627;28;20052;-65
2022/04/17 07:07:42;;;;;;;8.60;7.05;;;;;;;7.28;54.70;102864.03;5030845;28;20128;-65
2022/04/17 07:10:09;;;;;;;9.38;7.03;;;;;;;7.34;54.99;102862.97;5040818;28;20500;-65
2022/04/17 07:12:34;;;;;;;10.13;7.80;;;;;;;7.42;54.37;102868.72;5042352;28;20079;-65
2022/04/17 07:15:00;;;;;;;9.57;7.65;;;;;;;7.54;54.86;102862.28;5041288;28;20115;-64
2022/04/17 07:17:37;;;;;;;9.63;7.63;;;;;;;7.62;54.78;102868.84;5046844;28;20025;-64
2022/04/17 07:20:07;;;;;;;9.40;7.32;;;;;;;7.69;54.44;102857.41;5043623;28;20025;-65
2022/04/17 07:22:33;;;;;;;9.65;7.40;;;;;;;7.79;54.65;102863.03;5032997;28;20029;-65
2022/04/17 07:25:01;;;;;;;9.63;7.68;;;;;;;7.84;52.78;102861.13;5048254;28;20100;-64
2022/04/17 07:27:27;;;;;;;9.18;7.90;;;;;;;7.92;53.43;102856.53;5040392;28;20458;-67
2022/04/17 07:29:55;;;;;;;10.35;8.10;;;;;;;8.02;54.51;102843.25;5045107;28;20103;-64
2022/04/17 07:32:20;;;;;;;9.30;7.50;;;;;;;8.11;53.84;102842.91;5042631;28;20105;-64
2022/04/17 07:34:46;;;;;;;8.70;7.10;;;;;;;8.18;53.74;102828.84;5043982;28;20617;-65
2022/04/17 07:37:11;;;;;;;9.32;7.30;;;;;;;8.35;53.59;102836.75;5048845;28;20100;-64
2022/04/17 07:39:36;;;;;;;7.53;6.65;;;;;;;8.42;53.11;102842.56;5042474;28;20531;-64
2022/04/17 07:42:02;;;;;;;9.07;7.05;;;;;;;8.48;52.98;102843.16;5035952;28;20036;-65
2022/04/17 07:44:29;;;;;;;8.77;6.68;;;;;;;8.63;53.03;102840.84;5028070;28;20060;-64
2022/04/17 07:46:55;;;;;;;9.25;7.03;;;;;;;8.67;53.72;102832.06;5028283;28;20038;-66
2022/04/17 07:49:21;;;;;;;8.80;6.28;;;;;;;8.83;51.80;102837.44;5037316;28;20036;-67
2022/04/17 07:51:46;;;;;;;8.80;6.43;;;;;;;8.91;51.54;102820.69;5042725;28;20029;-65
2022/04/17 07:54:12;;;;;;;7.60;6.13;;;;;;;8.98;50.97;102826.44;5047924;28;20033;-66
2022/04/17 07:56:37;;;;;;;8.60;6.30;;;;;;;9.08;50.44;102826.91;5045584;28;20473;-66
2022/04/17 07:59:04;;;;;;;9.48;6.38;;;;;;;9.16;51.20;102829.97;5045808;28;20127;-66
2022/04/17 08:01:32;;;;;;;8.38;6.00;;;;;;;9.20;50.14;102821.19;5046445;28;20504;-68
2022/04/17 08:03:58;;;;;;;8.05;6.38;;;;;;;9.19;50.39;102807.41;5054492;23;20480;-66
2022/04/17 08:06:24;;;;;;;8.82;6.43;;;;;;;9.35;49.34;102815.34;5027760;28;20144;-65
2022/04/17 08:08:51;;;;;;;8.27;6.65;;;;;;;9.47;49.93;102819.97;5027355;28;20355;-67
2022/04/17 08:11:17;;;;;;;8.15;6.03;;;;;;;9.54;49.97;102810.16;5012511;28;20040;-66
2022/04/17 08:13:45;;;;;;;8.63;6.38;;;;;;;9.69;49.36;102809.47;5009230;28;20029;-67
2022/04/17 08:16:10;;;;;;;7.75;6.35;;;;;;;9.80;50.06;102816.72;5024634;28;20021;-66
2022/04/17 08:18:36;;;;;;;7.25;6.20;;;;;;;9.96;49.37;102802.13;5025565;28;20421;-66
2022/04/17 08:21:04;;;;;;;8.25;6.05;;;;;;;9.98;48.85;102795.13;5010309;28;20030;-69
2022/04/17 08:23:29;;;;;;;7.22;6.07;;;;;;;10.14;49.63;102804.75;4988719;28;20466;-66
2022/04/17 08:25:54;;;;;;;9.55;6.25;;;;;;;10.41;50.49;102808.63;5007697;28;20498;-67
2022/04/17 08:28:20;;;;;;;7.30;5.78;;;;;;;10.49;48.99;102805.66;5007630;28;20153;-67
2022/04/17 08:30:45;;;;;;;7.95;5.22;;;;;;;10.66;48.38;102815.19;5007556;28;20057;-67
2022/04/17 08:33:10;;;;;;;6.50;4.93;;;;;;;10.69;47.10;102807.28;5021570;28;20116;-66
2022/04/17 08:35:36;;;;;;;7.75;5.32;;;;;;;10.83;46.73;102804.81;5027444;28;20104;-68
2022/04/17 08:38:03;;;;;;;6.22;4.90;;;;;;;10.87;46.59;102798.53;5027138;28;20377;-70
2022/04/17 08:40:29;;;;;;;6.00;4.50;;;;;;;11.00;45.79;102807.38;5009374;28;20032;-66
2022/04/17 08:42:55;;;;;;;6.70;4.97;;;;;;;11.02;44.72;102789.97;5027227;28;20036;-67
2022/04/17 08:45:21;;;;;;;8.15;4.47;;;;;;;11.12;44.05;102791.16;5026983;28;20553;-66
2022/04/17 08:47:47;;;;;;;5.65;4.32;;;;;;;11.24;43.27;102799.22;5027158;28;20121;-70
2022/04/17 08:50:14;;;;;;;7.07;4.07;;;;;;;11.44;44.88;102801.59;5026763;28;20075;-66
2022/04/17 08:52:44;;;;;;;6.90;4.57;;;;;;;11.51;43.76;102802.13;5027033;28;20037;-66
2022/04/17 08:55:09;;;;;;;7.53;4.40;;;;;;;11.54;43.63;102797.59;5008727;28;20017;-66
2022/04/17 08:57:35;;;;;;;5.85;4.30;;;;;;;11.58;44.17;102788.69;5026994;28;20033;-67
2022/04/17 09:00:03;;;;;;;6.45;4.60;;;;;;;11.74;43.47;102793.06;5016718;28;20041;-67
2022/04/17 09:02:29;;;;;;;7.38;4.88;;;;;;;11.83;42.73;102779.59;5025625;28;20033;-66
2022/04/17 09:04:54;;;;;;;6.65;4.60;;;;;;;11.91;42.82;102785.19;5026097;28;20092;-67
2022/04/17 09:07:19;;;;;;;9.05;4.90;;;;;;;11.99;43.04;102782.19;5009170;28;20072;-66
2022/04/17 09:09:54;;;;;;;6.95;4.53;;;;;;;12.20;44.34;102786.97;5026576;28;20657;-66
2022/04/17 09:12:24;;;;;;;6.53;4.57;;;;;;;12.18;41.76;102788.84;5026995;28;20486;-66
2022/04/17 09:14:50;;;;;;;6.22;4.53;;;;;;;12.26;42.46;102774.56;5026519;28;20030;-66
2022/04/17 09:17:17;;;;;;;6.25;4.78;;;;;;;12.34;41.59;102794.03;5026647;28;20036;-70
2022/04/17 09:19:43;;;;;;;6.50;4.72;;;;;;;12.40;42.43;102783.25;5026691;28;20033;-67
2022/04/17 09:22:12;;;;;;;8.02;4.85;;;;;;;12.59;43.05;102767.38;5027086;28;20499;-66
2022/04/17 09:24:39;;;;;;;6.70;4.72;;;;;;;12.58;42.01;102765.72;5008959;28;20064;-69
2022/04/17 09:27:06;;;;;;;5.72;4.20;;;;;;;12.68;41.59;102772.06;5028751;28;20026;-66
2022/04/17 09:29:36;;;;;;;6.68;4.50;;;;;;;12.80;42.10;102764.44;5030679;28;20030;-66
2022/04/17 09:32:09;;;;;;;7.07;4.40;;;;;;;12.85;41.96;102762.41;5013275;28;20030;-67
2022/04/17 09:34:55;;;;;;;6.80;4.47;;;;;;;12.95;41.67;102750.47;5030259;28;20029;-69
2022/04/17 09:37:22;;;;;;;6.93;4.68;;;;;;;12.97;41.32;102757.28;5030781;28;20405;-67
2022/04/17 09:39:50;;;;;;;6.07;4.50;;;;;;;13.06;41.03;102750.66;5030336;28;20037;-66
2022/04/17 09:42:23;;;;;;;5.88;4.50;;;;;;;13.17;41.45;102753.44;5030724;28;20037;-66
2022/04/17 09:44:50;;;;;;;7.05;4.55;;;;;;;13.23;42.78;102753.09;4997026;28;20021;-68
2022/04/17 09:47:21;;;;;;;7.55;4.43;;;;;;;13.39;42.32;102752.16;5004848;28;20046;-67
2022/04/17 09:49:57;;;;;;;7.20;4.63;;;;;;;13.43;40.72;102753.63;5022419;28;20125;-66
2022/04/17 09:52:31;;;;;;;6.22;4.25;;;;;;;13.49;41.28;102732.41;5011843;28;20041;-67
2022/04/17 09:54:57;;;;;;;6.20;4.68;;;;;;;13.62;40.66;102737.66;5022626;28;20025;-66
2022/04/17 09:57:33;;;;;;;6.47;4.63;;;;;;;13.58;40.61;102736.16;5029374;28;20030;-67
2022/04/17 10:00:09;;;;;;;6.38;4.47;;;;;;;13.54;40.71;102719.91;5012304;28;20034;-67
2022/04/17 10:02:40;;;;;;;6.15;4.40;;;;;;;13.54;40.30;102719.91;5029738;28;20112;-69
2022/04/17 10:05:08;;;;;;;6.07;4.07;;;;;;;13.68;39.54;102716.41;5029633;28;20132;-67
2022/04/17 10:07:36;;;;;;;5.30;3.97;;;;;;;13.77;39.98;102706.22;5030313;28;20030;-67
2022/04/17 10:10:02;;;;;;;6.20;4.20;;;;;;;13.86;38.62;102714.38;5011771;28;20119;-67
2022/04/17 10:12:29;;;;;;;5.35;4.43;;;;;;;13.94;39.54;102717.34;5030110;28;20033;-67
2022/04/17 10:14:55;;;;;;;7.38;4.70;;;;;;;14.02;40.16;102709.81;5029434;28;20040;-66
2022/04/17 10:17:22;;;;;;;6.38;4.90;;;;;;;14.11;40.00;102709.22;5029804;28;20112;-66
2022/04/17 10:19:48;;;;;;;7.28;4.45;;;;;;;14.07;40.63;102698.16;5027226;28;20044;-67
2022/04/17 10:22:18;;;;;;;6.45;4.78;;;;;;;14.17;39.93;102703.59;5030039;28;20457;-66
2022/04/17 10:24:51;;;;;;;7.40;4.72;;;;;;;14.20;40.35;102695.53;5029641;28;20037;-69
2022/04/17 10:27:22;;;;;;;6.75;4.25;;;;;;;14.21;38.70;102694.59;5029681;28;20033;-67
2022/04/17 10:29:54;;;;;;;6.68;4.00;;;;;;;14.39;38.24;102699.50;5026812;28;20025;-67
2022/04/17 10:32:28;;;;;;;8.82;4.45;;;;;;;14.53;38.38;102681.19;5010048;28;20026;-67
2022/04/17 10:35:15;;;;;;;7.90;4.55;;;;;;;14.63;39.36;102677.00;5021669;28;20298;-67
2022/04/17 10:38:17;;;;;;;6.40;4.30;;;;;;;14.61;40.09;102676.25;5030219;28;20108;-68
2022/04/17 10:40:57;;;;;;;6.50;4.57;;;;;;;14.78;39.56;102673.31;5029697;28;20033;-67
2022/04/17 10:43:23;;;;;;;7.68;4.30;;;;;;;14.67;37.68;102665.38;5029531;28;20166;-66
2022/04/17 10:46:19;;;;;;;7.57;3.88;;;;;;;14.79;38.88;102669.75;5028789;28;20477;-66
2022/04/17 10:48:51;;;;;;;4.95;3.45;;;;;;;14.75;36.99;102662.25;5008016;28;20096;-67
2022/04/17 10:51:21;;;;;;;6.40;4.50;;;;;;;14.78;37.28;102652.41;5029160;28;20035;-67
2022/04/17 10:53:52;;;;;;;5.85;3.60;;;;;;;15.02;37.79;102649.00;5011610;28;20217;-66
2022/04/17 10:56:19;;;;;;;5.25;3.85;;;;;;;15.03;36.33;102650.69;5029191;28;20047;-67
2022/04/17 10:58:59;;;;;;;6.10;4.13;;;;;;;14.99;36.48;102644.00;5028497;28;20025;-67
2022/04/17 11:01:43;;;;;;;6.47;3.83;;;;;;;14.99;36.75;102644.00;5029189;28;20051;-66
2022/04/17 11:04:21;;;;;;;5.32;3.55;;;;;;;15.09;37.80;102647.63;5028525;28;20222;-68
2022/04/17 11:07:10;;;;;;;;;;;;;;;15.24;37.14;102641.28;5010222;28;20091;-66
2022/04/17 11:09:42;;;;;;;6.93;3.88;;;;;;;15.09;35.34;102637.19;5000423;28;19921;-67
2022/04/17 11:12:10;;;;;;;6.78;3.85;;;;;;;15.04;35.37;102634.06;5029161;28;20037;-67
2022/04/17 11:14:39;;;;;;;6.32;3.63;;;;;;;15.13;36.18;102636.00;5010667;28;20437;-67
2022/04/17 11:17:09;;;;;;;5.68;3.88;;;;;;;15.16;35.89;102627.94;5029555;28;20018;-67
2022/04/17 11:19:36;;;;;;;5.45;3.45;;;;;;;15.22;35.53;102624.06;5010800;28;20021;-66
2022/04/17 11:22:05;;;;;;;4.68;3.42;;;;;;;15.22;35.33;102614.44;5011326;28;20026;-67
2022/04/17 11:24:54;;;;;;;5.50;3.40;;;;;;;15.46;35.95;102616.19;5028923;28;20462;-67
2022/04/17 11:27:38;;;;;;;5.20;3.58;;;;;;;15.49;36.23;102615.97;5028396;28;20442;-66
2022/04/17 11:30:05;;;;;;;7.03;3.30;;;;;;;15.49;34.55;102601.13;5014003;28;20525;-68
2022/04/17 11:32:30;;;;;;;5.80;3.30;;;;;;;15.55;35.25;102605.06;5028424;28;20037;-66
2022/04/17 11:35:00;;;;;;;5.72;3.40;;;;;;;15.56;34.52;102596.25;5028702;28;20095;-68
2022/04/17 11:37:28;;;;;;;6.03;3.60;;;;;;;15.50;34.83;102594.09;5028363;28;20045;-69